Dati Storici

Data ora Umidita' aria (%) Temperatura aria (°C) Rad globale (W/m²) Gonioanemometro (°) Tacoanemometro (m/s) Pioggia (mm)
12-10-2012 22:00 77.2 % 17.061 3.123 188.635 -0.022 0
12-10-2012 21:50 76.6 % 17.221 3.328 212.834 0.513 0
12-10-2012 21:40 76.3 % 17.29 3.469 227.375 0.291 0
12-10-2012 21:30 76 % 17.359 3.243 264.51 0.42 0
12-10-2012 21:20 75.7 % 17.416 3.332 286.223 0.279 0
12-10-2012 21:10 75.5 % 17.392 3.281 265.164 0.765 0
12-10-2012 21:00 75.2 % 17.389 3.23 238.995 0.471 0
12-10-2012 20:50 74.8 % 17.507 3.346 248.189 0.556 0
12-10-2012 20:40 74.9 % 17.511 3.371 230.802 0.574 0
12-10-2012 20:30 75.1 % 17.561 3.422 280.313 0.461 0
12-10-2012 20:20 75.9 % 17.6 3.46 279.518 0.512 0
12-10-2012 20:10 75.2 % 17.448 3.281 257.639 0.458 0
12-10-2012 20:00 75 % 17.431 3.269 346.66 -0.021 0
12-10-2012 19:50 75.1 % 17.586 2.884 173.353 0.268 0
12-10-2012 19:40 74.8 % 17.561 2.614 175.156 0.341 0
12-10-2012 19:30 74.6 % 17.743 2.551 216.288 0.309 0
12-10-2012 19:20 74.5 % 17.877 2.034 177.565 0.612 0
12-10-2012 19:10 74.1 % 18.01 2.278 186.976 1.003 0
12-10-2012 19:00 73.8 % 18.078 2.342 177.185 0.733 0
12-10-2012 18:50 73.7 % 18.044 2.253 188.801 0.438 0

I dati sono presentati in modo automatico a scopo informativo. In seguito a verifica i dati possono subire modifiche o essere invalidati e non riportati negli archivi definitivi.